sensor_id;sensor_type;location;lat;lon;timestamp;pressure;altitude;pressure_sealevel;temperature;humidity
76108;BME280;64834;52.516;10.528;2022-11-23T00:02:23;99470.72;;;2.59;89.68
76108;BME280;64834;52.516;10.528;2022-11-23T00:04:48;99469.44;;;2.66;89.37
76108;BME280;64834;52.516;10.528;2022-11-23T00:07:14;99466.25;;;2.70;88.60
76108;BME280;64834;52.516;10.528;2022-11-23T00:09:39;99465.28;;;2.68;88.93
76108;BME280;64834;52.516;10.528;2022-11-23T00:12:04;99473.03;;;2.68;89.34
76108;BME280;64834;52.516;10.528;2022-11-23T00:14:30;99468.34;;;2.62;89.40
76108;BME280;64834;52.516;10.528;2022-11-23T00:16:55;99468.25;;;2.74;88.92
76108;BME280;64834;52.516;10.528;2022-11-23T00:19:21;99472.84;;;2.78;88.82
76108;BME280;64834;52.516;10.528;2022-11-23T00:21:46;99474.72;;;2.81;88.87
76108;BME280;64834;52.516;10.528;2022-11-23T00:24:11;99479.56;;;2.63;89.40
76108;BME280;64834;52.516;10.528;2022-11-23T00:26:37;99469.06;;;2.86;88.49
76108;BME280;64834;52.516;10.528;2022-11-23T00:29:02;99476.81;;;2.86;88.65
76108;BME280;64834;52.516;10.528;2022-11-23T00:31:28;99468.97;;;2.85;88.37
76108;BME280;64834;52.516;10.528;2022-11-23T00:33:54;99467.88;;;2.94;88.00
76108;BME280;64834;52.516;10.528;2022-11-23T00:36:21;99467.78;;;2.93;88.28
76108;BME280;64834;52.516;10.528;2022-11-23T00:38:47;99458.03;;;2.89;88.03
76108;BME280;64834;52.516;10.528;2022-11-23T00:41:15;99462.13;;;2.98;88.26
76108;BME280;64834;52.516;10.528;2022-11-23T00:43:41;99456.88;;;2.97;87.73
76108;BME280;64834;52.516;10.528;2022-11-23T00:46:12;99453.56;;;3.00;87.91
76108;BME280;64834;52.516;10.528;2022-11-23T00:48:38;99461.22;;;2.98;87.75
76108;BME280;64834;52.516;10.528;2022-11-23T00:51:06;99461.72;;;2.92;88.35
76108;BME280;64834;52.516;10.528;2022-11-23T00:53:33;99458.56;;;2.83;88.35
76108;BME280;64834;52.516;10.528;2022-11-23T00:55:58;99463.19;;;2.76;88.75
76108;BME280;64834;52.516;10.528;2022-11-23T00:58:24;99456.25;;;2.88;88.09
76108;BME280;64834;52.516;10.528;2022-11-23T01:00:49;99465.09;;;2.78;88.93
76108;BME280;64834;52.516;10.528;2022-11-23T01:03:15;99461.88;;;2.69;88.61
76108;BME280;64834;52.516;10.528;2022-11-23T01:05:41;99457.53;;;2.68;88.88
76108;BME280;64834;52.516;10.528;2022-11-23T01:08:07;99462.75;;;2.56;89.42
76108;BME280;64834;52.516;10.528;2022-11-23T01:10:33;99466.56;;;2.61;89.29
76108;BME280;64834;52.516;10.528;2022-11-23T01:12:59;99467.69;;;2.40;89.56
76108;BME280;64834;52.516;10.528;2022-11-23T01:15:25;99470.13;;;2.25;90.50
76108;BME280;64834;52.516;10.528;2022-11-23T01:17:51;99480.56;;;2.27;90.60
76108;BME280;64834;52.516;10.528;2022-11-23T01:20:16;99472.59;;;2.24;90.56
76108;BME280;64834;52.516;10.528;2022-11-23T01:22:42;99472.56;;;2.10;90.87
76108;BME280;64834;52.516;10.528;2022-11-23T01:25:07;99473.81;;;2.04;90.80
76108;BME280;64834;52.516;10.528;2022-11-23T01:27:32;99467.16;;;2.07;91.06
76108;BME280;64834;52.516;10.528;2022-11-23T01:29:58;99477.75;;;1.99;91.30
76108;BME280;64834;52.516;10.528;2022-11-23T01:32:23;99473.31;;;1.96;90.66
76108;BME280;64834;52.516;10.528;2022-11-23T01:34:48;99474.25;;;2.10;91.16
76108;BME280;64834;52.516;10.528;2022-11-23T01:37:14;99479.78;;;2.03;91.21
76108;BME280;64834;52.516;10.528;2022-11-23T01:39:39;99474.91;;;2.07;91.06
76108;BME280;64834;52.516;10.528;2022-11-23T01:42:04;99481.19;;;2.11;90.65
76108;BME280;64834;52.516;10.528;2022-11-23T01:44:34;99483.25;;;2.03;90.67
76108;BME280;64834;52.516;10.528;2022-11-23T01:47:02;99480.19;;;2.09;90.85
76108;BME280;64834;52.516;10.528;2022-11-23T01:49:31;99474.81;;;2.06;90.73
76108;BME280;64834;52.516;10.528;2022-11-23T01:52:23;99485.88;;;2.16;90.94
76108;BME280;64834;52.516;10.528;2022-11-23T01:54:50;99493.19;;;2.10;90.76
76108;BME280;64834;52.516;10.528;2022-11-23T01:57:20;99487.94;;;2.09;90.86
76108;BME280;64834;52.516;10.528;2022-11-23T01:59:48;99487.19;;;1.98;90.77
76108;BME280;64834;52.516;10.528;2022-11-23T02:02:14;99487.81;;;2.07;91.26
76108;BME280;64834;52.516;10.528;2022-11-23T02:04:42;99485.88;;;1.92;91.75
76108;BME280;64834;52.516;10.528;2022-11-23T02:07:09;99479.06;;;2.05;90.77
76108;BME280;64834;52.516;10.528;2022-11-23T02:09:35;99479.78;;;2.03;91.21
76108;BME280;64834;52.516;10.528;2022-11-23T02:12:01;99481.00;;;2.08;91.02
76108;BME280;64834;52.516;10.528;2022-11-23T02:14:26;99477.63;;;2.09;90.62
76108;BME280;64834;52.516;10.528;2022-11-23T02:16:52;99474.38;;;2.00;90.91
76108;BME280;64834;52.516;10.528;2022-11-23T02:21:55;99478.75;;;2.01;90.96
76108;BME280;64834;52.516;10.528;2022-11-23T02:24:25;99471.84;;;1.88;91.45
76108;BME280;64834;52.516;10.528;2022-11-23T02:26:54;99483.97;;;1.89;91.42
76108;BME280;64834;52.516;10.528;2022-11-23T02:29:22;99478.81;;;1.89;91.29
76108;BME280;64834;52.516;10.528;2022-11-23T02:31:48;99480.19;;;1.84;91.51
76108;BME280;64834;52.516;10.528;2022-11-23T02:34:15;99486.38;;;1.62;91.75
76108;BME280;64834;52.516;10.528;2022-11-23T02:36:47;99491.16;;;1.81;92.09
76108;BME280;64834;52.516;10.528;2022-11-23T02:39:15;99488.78;;;1.96;91.50
76108;BME280;64834;52.516;10.528;2022-11-23T02:41:44;99488.78;;;1.96;91.30
76108;BME280;64834;52.516;10.528;2022-11-23T02:47:08;99487.50;;;2.03;91.07
76108;BME280;64834;52.516;10.528;2022-11-23T02:49:34;99486.50;;;2.01;90.91
76108;BME280;64834;52.516;10.528;2022-11-23T02:52:00;99486.72;;;2.04;91.15
76108;BME280;64834;52.516;10.528;2022-11-23T02:54:26;99488.81;;;1.84;91.29
76108;BME280;64834;52.516;10.528;2022-11-23T02:56:52;99497.31;;;1.95;91.87
76108;BME280;64834;52.516;10.528;2022-11-23T02:59:17;99497.22;;;1.82;92.21
76108;BME280;64834;52.516;10.528;2022-11-23T03:01:42;99497.31;;;1.95;91.57
76108;BME280;64834;52.516;10.528;2022-11-23T03:04:08;99498.97;;;1.95;91.05
76108;BME280;64834;52.516;10.528;2022-11-23T03:06:34;99507.97;;;1.88;91.80
76108;BME280;64834;52.516;10.528;2022-11-23T03:09:00;99497.06;;;1.92;91.27
76108;BME280;64834;52.516;10.528;2022-11-23T03:11:25;99500.66;;;1.94;91.16
76108;BME280;64834;52.516;10.528;2022-11-23T03:13:50;99506.38;;;2.02;90.45
76108;BME280;64834;52.516;10.528;2022-11-23T03:16:16;99501.25;;;1.90;90.75
76108;BME280;64834;52.516;10.528;2022-11-23T03:18:41;99504.28;;;1.84;91.01
76108;BME280;64834;52.516;10.528;2022-11-23T03:21:07;99501.09;;;1.64;91.30
76108;BME280;64834;52.516;10.528;2022-11-23T03:23:36;99500.38;;;1.78;91.27
76108;BME280;64834;52.516;10.528;2022-11-23T03:26:02;99496.03;;;1.77;91.17
76108;BME280;64834;52.516;10.528;2022-11-23T03:28:27;99496.59;;;1.61;91.94
76108;BME280;64834;52.516;10.528;2022-11-23T03:30:53;99496.84;;;1.64;91.99
76108;BME280;64834;52.516;10.528;2022-11-23T03:33:19;99493.22;;;1.62;91.95
76108;BME280;64834;52.516;10.528;2022-11-23T03:35:44;99493.19;;;1.74;92.08
76108;BME280;64834;52.516;10.528;2022-11-23T03:38:09;99477.53;;;1.71;92.33
76108;BME280;64834;52.516;10.528;2022-11-23T03:40:35;99488.41;;;1.67;92.27
76108;BME280;64834;52.516;10.528;2022-11-23T03:43:01;99482.56;;;1.69;92.06
76108;BME280;64834;52.516;10.528;2022-11-23T03:45:26;99488.28;;;1.77;91.92
76108;BME280;64834;52.516;10.528;2022-11-23T03:47:51;99486.38;;;1.74;92.39
76108;BME280;64834;52.516;10.528;2022-11-23T03:50:17;99494.63;;;1.82;92.30
76108;BME280;64834;52.516;10.528;2022-11-23T03:52:42;99495.19;;;1.89;92.12
76108;BME280;64834;52.516;10.528;2022-11-23T03:55:08;99490.22;;;1.93;92.34
76108;BME280;64834;52.516;10.528;2022-11-23T03:57:33;99486.06;;;1.95;92.49
76108;BME280;64834;52.516;10.528;2022-11-23T03:59:59;99483.72;;;1.98;92.06
76108;BME280;64834;52.516;10.528;2022-11-23T04:02:24;99492.69;;;2.03;92.06
76108;BME280;64834;52.516;10.528;2022-11-23T04:04:49;99488.56;;;2.18;91.85
76108;BME280;64834;52.516;10.528;2022-11-23T04:07:15;99488.56;;;2.18;91.69
76108;BME280;64834;52.516;10.528;2022-11-23T04:09:40;99482.84;;;2.22;91.84
76108;BME280;64834;52.516;10.528;2022-11-23T04:12:05;99492.69;;;2.28;91.61
76108;BME280;64834;52.516;10.528;2022-11-23T04:14:31;99485.47;;;2.35;91.62
76108;BME280;64834;52.516;10.528;2022-11-23T04:16:56;99491.94;;;2.42;91.05
76108;BME280;64834;52.516;10.528;2022-11-23T04:19:21;99486.19;;;2.46;91.04
76108;BME280;64834;52.516;10.528;2022-11-23T04:21:47;99488.78;;;2.46;91.05
76108;BME280;64834;52.516;10.528;2022-11-23T04:24:12;99486.59;;;2.52;90.91
76108;BME280;64834;52.516;10.528;2022-11-23T04:26:38;99485.34;;;2.59;90.85
76108;BME280;64834;52.516;10.528;2022-11-23T04:29:04;99488.41;;;2.66;90.65
76108;BME280;64834;52.516;10.528;2022-11-23T04:31:30;99494.66;;;2.70;90.50
76108;BME280;64834;52.516;10.528;2022-11-23T04:33:55;99487.13;;;2.73;90.74
76108;BME280;64834;52.516;10.528;2022-11-23T04:36:23;99490.13;;;2.79;90.45
76108;BME280;64834;52.516;10.528;2022-11-23T04:38:49;99497.41;;;2.85;90.45
76108;BME280;64834;52.516;10.528;2022-11-23T04:41:14;99497.72;;;2.89;89.74
76108;BME280;64834;52.516;10.528;2022-11-23T04:43:39;99491.44;;;2.86;90.22
76108;BME280;64834;52.516;10.528;2022-11-23T04:46:05;99501.19;;;2.90;89.77
76108;BME280;64834;52.516;10.528;2022-11-23T04:48:30;99503.16;;;2.94;89.98
76108;BME280;64834;52.516;10.528;2022-11-23T04:50:56;99501.66;;;2.84;90.34
76108;BME280;64834;52.516;10.528;2022-11-23T04:53:21;99505.97;;;2.97;90.00
76108;BME280;64834;52.516;10.528;2022-11-23T04:55:47;99498.22;;;2.97;89.98
76108;BME280;64834;52.516;10.528;2022-11-23T04:58:12;99502.34;;;2.95;89.96
76108;BME280;64834;52.516;10.528;2022-11-23T05:00:37;99501.06;;;3.02;89.75
76108;BME280;64834;52.516;10.528;2022-11-23T05:03:03;99503.38;;;2.97;90.14
76108;BME280;64834;52.516;10.528;2022-11-23T05:05:28;99507.16;;;3.02;89.95
76108;BME280;64834;52.516;10.528;2022-11-23T05:07:54;99499.50;;;3.04;89.77
76108;BME280;64834;52.516;10.528;2022-11-23T05:10:20;99506.47;;;3.05;90.15
76108;BME280;64834;52.516;10.528;2022-11-23T05:12:45;99500.09;;;3.13;89.75
76108;BME280;64834;52.516;10.528;2022-11-23T05:15:12;99497.81;;;3.17;89.82
76108;BME280;64834;52.516;10.528;2022-11-23T05:17:38;99497.09;;;3.20;89.32
76108;BME280;64834;52.516;10.528;2022-11-23T05:20:04;99504.09;;;3.21;89.72
76108;BME280;64834;52.516;10.528;2022-11-23T05:22:29;99490.66;;;3.13;89.85
76108;BME280;64834;52.516;10.528;2022-11-23T05:24:55;99491.94;;;3.20;89.68
76108;BME280;64834;52.516;10.528;2022-11-23T05:27:20;99490.63;;;3.27;89.54
76108;BME280;64834;52.516;10.528;2022-11-23T05:29:45;99495.13;;;3.29;89.66
76108;BME280;64834;52.516;10.528;2022-11-23T05:32:11;99501.50;;;3.34;89.29
76108;BME280;64834;52.516;10.528;2022-11-23T05:34:36;99499.59;;;3.32;89.61
76108;BME280;64834;52.516;10.528;2022-11-23T05:37:01;99493.44;;;3.30;89.72
76108;BME280;64834;52.516;10.528;2022-11-23T05:39:27;99495.63;;;3.37;89.20
76108;BME280;64834;52.516;10.528;2022-11-23T05:41:52;99493.34;;;3.41;89.40
76108;BME280;64834;52.516;10.528;2022-11-23T05:44:17;99505.16;;;3.51;89.09
76108;BME280;64834;52.516;10.528;2022-11-23T05:46:43;99509.63;;;3.54;89.13
76108;BME280;64834;52.516;10.528;2022-11-23T05:49:08;99501.50;;;3.47;89.35
76108;BME280;64834;52.516;10.528;2022-11-23T05:51:33;99501.91;;;3.40;89.50
76108;BME280;64834;52.516;10.528;2022-11-23T05:54:00;99503.28;;;3.48;89.69
76108;BME280;64834;52.516;10.528;2022-11-23T05:56:26;99499.78;;;3.48;89.63
76108;BME280;64834;52.516;10.528;2022-11-23T05:58:54;99502.16;;;3.45;89.25
76108;BME280;64834;52.516;10.528;2022-11-23T06:01:20;99504.06;;;3.47;89.66
76108;BME280;64834;52.516;10.528;2022-11-23T06:03:45;99492.34;;;3.53;89.59
76108;BME280;64834;52.516;10.528;2022-11-23T06:06:10;99499.00;;;3.36;90.18
76108;BME280;64834;52.516;10.528;2022-11-23T06:08:36;99501.00;;;3.53;89.68
76108;BME280;64834;52.516;10.528;2022-11-23T06:11:01;99501.84;;;3.67;89.35
76108;BME280;64834;52.516;10.528;2022-11-23T06:13:26;99505.03;;;3.63;89.13
76108;BME280;64834;52.516;10.528;2022-11-23T06:15:52;99508.91;;;3.69;89.36
76108;BME280;64834;52.516;10.528;2022-11-23T06:18:17;99509.91;;;3.71;89.18
76108;BME280;64834;52.516;10.528;2022-11-23T06:20:42;99509.41;;;3.64;89.20
76108;BME280;64834;52.516;10.528;2022-11-23T06:23:08;99513.03;;;3.53;89.97
76108;BME280;64834;52.516;10.528;2022-11-23T06:25:33;99508.34;;;3.60;89.72
76108;BME280;64834;52.516;10.528;2022-11-23T06:27:59;99512.31;;;3.55;89.71
76108;BME280;64834;52.516;10.528;2022-11-23T06:30:27;99527.94;;;3.57;90.18
76108;BME280;64834;52.516;10.528;2022-11-23T06:32:52;99521.34;;;3.62;90.30
76108;BME280;64834;52.516;10.528;2022-11-23T06:35:18;99517.56;;;3.70;89.85
76108;BME280;64834;52.516;10.528;2022-11-23T06:37:43;99528.50;;;3.79;89.50
76108;BME280;64834;52.516;10.528;2022-11-23T06:40:10;99529.50;;;3.81;89.50
76108;BME280;64834;52.516;10.528;2022-11-23T06:42:35;99532.47;;;3.87;88.83
76108;BME280;64834;52.516;10.528;2022-11-23T06:45:01;99526.00;;;3.81;89.53
76108;BME280;64834;52.516;10.528;2022-11-23T06:47:27;99532.16;;;3.83;89.14
76108;BME280;64834;52.516;10.528;2022-11-23T06:49:53;99540.81;;;3.83;89.41
76108;BME280;64834;52.516;10.528;2022-11-23T06:52:18;99533.06;;;3.96;88.85
76108;BME280;64834;52.516;10.528;2022-11-23T06:54:44;99542.69;;;3.99;88.89
76108;BME280;64834;52.516;10.528;2022-11-23T06:57:09;99540.59;;;3.93;89.01
76108;BME280;64834;52.516;10.528;2022-11-23T06:59:34;99536.28;;;3.79;89.37
76108;BME280;64834;52.516;10.528;2022-11-23T07:02:00;99541.81;;;3.98;88.67
76108;BME280;64834;52.516;10.528;2022-11-23T07:04:25;99545.78;;;3.93;88.95
76108;BME280;64834;52.516;10.528;2022-11-23T07:06:50;99550.41;;;3.84;89.53
76108;BME280;64834;52.516;10.528;2022-11-23T07:09:16;99551.34;;;3.99;89.15
76108;BME280;64834;52.516;10.528;2022-11-23T07:11:41;99553.47;;;3.92;89.54
76108;BME280;64834;52.516;10.528;2022-11-23T07:14:06;99552.75;;;3.94;89.53
76108;BME280;64834;52.516;10.528;2022-11-23T07:16:32;99554.94;;;3.88;89.62
76108;BME280;64834;52.516;10.528;2022-11-23T07:18:57;99552.25;;;4.00;89.27
76108;BME280;64834;52.516;10.528;2022-11-23T07:21:23;99550.84;;;4.05;88.85
76108;BME280;64834;52.516;10.528;2022-11-23T07:23:48;99549.16;;;4.05;89.02
76108;BME280;64834;52.516;10.528;2022-11-23T07:26:13;99553.44;;;4.05;89.22
76108;BME280;64834;52.516;10.528;2022-11-23T07:28:39;99553.53;;;4.06;89.12
76108;BME280;64834;52.516;10.528;2022-11-23T07:31:04;99557.88;;;4.07;89.03
76108;BME280;64834;52.516;10.528;2022-11-23T07:33:29;99565.78;;;4.09;89.28
76108;BME280;64834;52.516;10.528;2022-11-23T07:35:55;99567.09;;;4.02;89.31
76108;BME280;64834;52.516;10.528;2022-11-23T07:38:20;99566.69;;;3.96;89.56
76108;BME280;64834;52.516;10.528;2022-11-23T07:40:48;99574.47;;;3.96;89.73
76108;BME280;64834;52.516;10.528;2022-11-23T07:43:15;99564.94;;;4.23;88.72
76108;BME280;64834;52.516;10.528;2022-11-23T07:45:40;99578.56;;;4.21;89.05
76108;BME280;64834;52.516;10.528;2022-11-23T07:48:07;99586.34;;;4.21;89.10
76108;BME280;64834;52.516;10.528;2022-11-23T07:50:34;99584.13;;;4.27;88.79
76108;BME280;64834;52.516;10.528;2022-11-23T07:53:04;99574.28;;;4.35;88.82
76108;BME280;64834;52.516;10.528;2022-11-23T07:55:30;99575.97;;;4.34;88.49
76108;BME280;64834;52.516;10.528;2022-11-23T07:57:56;99574.88;;;4.30;89.06
76108;BME280;64834;52.516;10.528;2022-11-23T08:00:23;99572.06;;;4.41;88.58
76108;BME280;64834;52.516;10.528;2022-11-23T08:02:49;99579.50;;;4.49;88.58
76108;BME280;64834;52.516;10.528;2022-11-23T08:05:15;99582.63;;;4.58;88.27
76108;BME280;64834;52.516;10.528;2022-11-23T08:07:41;99579.13;;;4.58;88.08
76108;BME280;64834;52.516;10.528;2022-11-23T08:10:07;99586.06;;;4.72;87.77
76108;BME280;64834;52.516;10.528;2022-11-23T08:12:33;99581.34;;;4.80;87.51
76108;BME280;64834;52.516;10.528;2022-11-23T08:14:58;99581.88;;;4.74;87.68
76108;BME280;64834;52.516;10.528;2022-11-23T08:17:24;99585.97;;;4.71;88.12
76108;BME280;64834;52.516;10.528;2022-11-23T08:19:49;99590.75;;;4.78;87.58
76108;BME280;64834;52.516;10.528;2022-11-23T08:22:14;99579.56;;;4.79;87.64
76108;BME280;64834;52.516;10.528;2022-11-23T08:24:40;99587.88;;;4.88;87.29
76108;BME280;64834;52.516;10.528;2022-11-23T08:27:06;99593.06;;;4.88;87.19
76108;BME280;64834;52.516;10.528;2022-11-23T08:29:31;99593.50;;;4.96;86.73
76108;BME280;64834;52.516;10.528;2022-11-23T08:31:56;99595.69;;;5.03;86.77
76108;BME280;64834;52.516;10.528;2022-11-23T08:34:22;99591.50;;;5.05;86.87
76108;BME280;64834;52.516;10.528;2022-11-23T08:36:47;99599.50;;;4.95;87.15
76108;BME280;64834;52.516;10.528;2022-11-23T08:39:13;99594.25;;;5.08;87.25
76108;BME280;64834;52.516;10.528;2022-11-23T08:41:39;99593.63;;;5.27;86.57
76108;BME280;64834;52.516;10.528;2022-11-23T08:44:05;99593.38;;;5.37;85.91
76108;BME280;64834;52.516;10.528;2022-11-23T08:46:32;99592.56;;;5.38;86.35
76108;BME280;64834;52.516;10.528;2022-11-23T08:48:57;99584.41;;;5.47;85.78
76108;BME280;64834;52.516;10.528;2022-11-23T08:51:23;99585.56;;;5.52;85.78
76108;BME280;64834;52.516;10.528;2022-11-23T08:53:49;99584.22;;;5.58;85.59
76108;BME280;64834;52.516;10.528;2022-11-23T08:56:15;99589.59;;;5.61;84.97
76108;BME280;64834;52.516;10.528;2022-11-23T08:58:40;99584.22;;;5.58;85.02
76108;BME280;64834;52.516;10.528;2022-11-23T09:01:10;99575.34;;;5.69;84.96
76108;BME280;64834;52.516;10.528;2022-11-23T09:03:36;99583.75;;;5.80;84.58
76108;BME280;64834;52.516;10.528;2022-11-23T09:06:02;99587.94;;;5.78;84.26
76108;BME280;64834;52.516;10.528;2022-11-23T09:08:27;99589.38;;;5.88;84.33
76108;BME280;64834;52.516;10.528;2022-11-23T09:10:53;99589.28;;;5.86;84.45
76108;BME280;64834;52.516;10.528;2022-11-23T09:13:18;99589.91;;;5.97;83.80
76108;BME280;64834;52.516;10.528;2022-11-23T09:15:43;99592.41;;;6.10;84.01
76108;BME280;64834;52.516;10.528;2022-11-23T09:18:09;99592.97;;;6.21;83.34
76108;BME280;64834;52.516;10.528;2022-11-23T09:20:35;99594.97;;;6.41;82.82
76108;BME280;64834;52.516;10.528;2022-11-23T09:23:00;99606.16;;;6.57;82.24
76108;BME280;64834;52.516;10.528;2022-11-23T09:25:26;99601.13;;;6.76;81.23
76108;BME280;64834;52.516;10.528;2022-11-23T09:27:58;99593.09;;;6.88;80.38
76108;BME280;64834;52.516;10.528;2022-11-23T09:30:28;99602.75;;;6.90;80.55
76108;BME280;64834;52.516;10.528;2022-11-23T09:32:57;99598.88;;;6.98;79.65
76108;BME280;64834;52.516;10.528;2022-11-23T09:35:22;99605.84;;;6.99;80.02
76108;BME280;64834;52.516;10.528;2022-11-23T09:37:54;99597.84;;;7.13;79.50
76108;BME280;64834;52.516;10.528;2022-11-23T09:40:19;99602.41;;;7.17;79.95
76108;BME280;64834;52.516;10.528;2022-11-23T09:45:52;99599.44;;;7.27;78.96
76108;BME280;64834;52.516;10.528;2022-11-23T09:51:18;99608.97;;;7.26;80.04
76108;BME280;64834;52.516;10.528;2022-11-23T09:53:48;99603.19;;;7.32;79.10
76108;BME280;64834;52.516;10.528;2022-11-23T09:56:22;99604.06;;;7.33;78.84
76108;BME280;64834;52.516;10.528;2022-11-23T09:58:53;99600.97;;;7.40;79.01
76108;BME280;64834;52.516;10.528;2022-11-23T10:01:20;99605.66;;;7.47;79.30
76108;BME280;64834;52.516;10.528;2022-11-23T10:03:46;99601.94;;;7.42;78.44
76108;BME280;64834;52.516;10.528;2022-11-23T10:06:23;99603.34;;;7.53;79.11
76108;BME280;64834;52.516;10.528;2022-11-23T10:14:45;99613.56;;;7.66;78.50
76108;BME280;64834;52.516;10.528;2022-11-23T10:17:29;99615.56;;;7.72;78.00
76108;BME280;64834;52.516;10.528;2022-11-23T10:20:00;99613.84;;;7.72;78.78
76108;BME280;64834;52.516;10.528;2022-11-23T10:22:57;99608.16;;;7.79;78.94
76108;BME280;64834;52.516;10.528;2022-11-23T10:25:23;99606.06;;;7.90;78.68
76108;BME280;64834;52.516;10.528;2022-11-23T10:27:52;99609.66;;;7.92;78.53
76108;BME280;64834;52.516;10.528;2022-11-23T10:30:19;99618.41;;;7.94;79.21
76108;BME280;64834;52.516;10.528;2022-11-23T10:32:55;99608.13;;;7.97;78.64
76108;BME280;64834;52.516;10.528;2022-11-23T10:35:31;99615.81;;;7.94;78.56
76108;BME280;64834;52.516;10.528;2022-11-23T10:38:17;99617.91;;;8.01;78.80
76108;BME280;64834;52.516;10.528;2022-11-23T10:41:02;99616.25;;;8.03;77.60
76108;BME280;64834;52.516;10.528;2022-11-23T10:43:35;99610.22;;;8.04;78.13
76108;BME280;64834;52.516;10.528;2022-11-23T10:48:50;99615.16;;;7.98;78.72
76108;BME280;64834;52.516;10.528;2022-11-23T10:51:31;99614.47;;;8.02;79.76
76108;BME280;64834;52.516;10.528;2022-11-23T10:54:02;99614.09;;;8.13;78.60
76108;BME280;64834;52.516;10.528;2022-11-23T10:56:28;99611.25;;;8.08;79.30
76108;BME280;64834;52.516;10.528;2022-11-23T10:58:53;99614.94;;;8.11;78.61
76108;BME280;64834;52.516;10.528;2022-11-23T11:01:24;99609.38;;;8.23;78.07
76108;BME280;64834;52.516;10.528;2022-11-23T11:03:51;99615.13;;;8.16;78.81
76108;BME280;64834;52.516;10.528;2022-11-23T11:06:31;99610.19;;;8.22;78.88
76108;BME280;64834;52.516;10.528;2022-11-23T11:09:03;99605.22;;;8.27;79.17
76108;BME280;64834;52.516;10.528;2022-11-23T11:11:35;99607.75;;;8.25;78.52
76108;BME280;64834;52.516;10.528;2022-11-23T11:14:08;99616.16;;;8.20;78.34
76108;BME280;64834;52.516;10.528;2022-11-23T11:16:54;99598.34;;;8.29;78.14
76108;BME280;64834;52.516;10.528;2022-11-23T11:19:30;99603.56;;;8.29;78.74
76108;BME280;64834;52.516;10.528;2022-11-23T11:22:01;99602.75;;;8.30;79.19
76108;BME280;64834;52.516;10.528;2022-11-23T11:24:37;99607.06;;;8.29;78.38
76108;BME280;64834;52.516;10.528;2022-11-23T11:27:16;99600.59;;;8.39;78.19
76108;BME280;64834;52.516;10.528;2022-11-23T11:35:09;99608.56;;;8.42;78.65
76108;BME280;64834;52.516;10.528;2022-11-23T11:37:39;99609.94;;;8.53;77.59
76108;BME280;64834;52.516;10.528;2022-11-23T11:42:43;99601.50;;;8.59;77.45
76108;BME280;64834;52.516;10.528;2022-11-23T11:45:20;99603.50;;;8.64;78.12
76108;BME280;64834;52.516;10.528;2022-11-23T11:47:56;99602.50;;;8.80;76.45
76108;BME280;64834;52.516;10.528;2022-11-23T11:50:28;99601.19;;;8.71;75.81
76108;BME280;64834;52.516;10.528;2022-11-23T11:53:00;99612.50;;;8.71;76.08
76108;BME280;64834;52.516;10.528;2022-11-23T11:58:31;99601.19;;;8.71;75.14
76108;BME280;64834;52.516;10.528;2022-11-23T12:01:16;99599.19;;;8.65;75.76
76108;BME280;64834;52.516;10.528;2022-11-23T12:03:48;99600.97;;;8.66;74.89
76108;BME280;64834;52.516;10.528;2022-11-23T12:09:39;99601.66;;;8.62;75.29
76108;BME280;64834;52.516;10.528;2022-11-23T12:12:12;99591.53;;;8.68;75.31
76108;BME280;64834;52.516;10.528;2022-11-23T12:14:39;99599.25;;;8.67;75.06
76108;BME280;64834;52.516;10.528;2022-11-23T12:20:07;99599.47;;;8.71;76.36
76108;BME280;64834;52.516;10.528;2022-11-23T12:25:30;99593.69;;;8.78;75.60
76108;BME280;64834;52.516;10.528;2022-11-23T12:30:53;99585.88;;;8.78;74.23
76108;BME280;64834;52.516;10.528;2022-11-23T12:45:33;99581.06;;;9.07;72.12
76108;BME280;64834;52.516;10.528;2022-11-23T12:48:09;99581.63;;;9.00;73.27
76108;BME280;64834;52.516;10.528;2022-11-23T12:54:24;99569.94;;;8.91;74.30
76108;BME280;64834;52.516;10.528;2022-11-23T13:00:00;99577.19;;;8.99;73.84
76108;BME280;64834;52.516;10.528;2022-11-23T13:05:25;99560.41;;;8.73;74.87
76108;BME280;64834;52.516;10.528;2022-11-23T13:08:12;99564.41;;;8.64;74.82
76108;BME280;64834;52.516;10.528;2022-11-23T13:10:52;99563.50;;;8.64;75.53
76108;BME280;64834;52.516;10.528;2022-11-23T13:13:56;99561.13;;;8.49;76.03
76108;BME280;64834;52.516;10.528;2022-11-23T13:17:16;99564.34;;;8.63;75.55
76108;BME280;64834;52.516;10.528;2022-11-23T13:19:46;99563.28;;;8.79;74.42
76108;BME280;64834;52.516;10.528;2022-11-23T13:22:17;99564.19;;;8.79;74.03
76108;BME280;64834;52.516;10.528;2022-11-23T13:25:26;99562.09;;;8.91;73.93
76108;BME280;64834;52.516;10.528;2022-11-23T13:30:38;99554.72;;;9.22;72.38
76108;BME280;64834;52.516;10.528;2022-11-23T13:40:35;99563.31;;;9.19;71.71
76108;BME280;64834;52.516;10.528;2022-11-23T13:43:38;99562.50;;;9.20;72.13
76108;BME280;64834;52.516;10.528;2022-11-23T13:46:23;99566.94;;;9.23;72.17
76108;BME280;64834;52.516;10.528;2022-11-23T13:48:54;99561.16;;;9.30;71.59
76108;BME280;64834;52.516;10.528;2022-11-23T13:51:33;99560.19;;;9.28;72.10
76108;BME280;64834;52.516;10.528;2022-11-23T13:54:01;99563.59;;;9.25;71.83
76108;BME280;64834;52.516;10.528;2022-11-23T13:58:58;99563.38;;;9.21;72.11
76108;BME280;64834;52.516;10.528;2022-11-23T14:04:38;99566.00;;;9.21;72.23
76108;BME280;64834;52.516;10.528;2022-11-23T14:12:20;99556.75;;;9.29;71.85
76108;BME280;64834;52.516;10.528;2022-11-23T14:23:48;99559.44;;;9.30;71.67
76108;BME280;64834;52.516;10.528;2022-11-23T14:32:34;99556.44;;;9.21;72.96
76108;BME280;64834;52.516;10.528;2022-11-23T14:35:23;99563.75;;;9.09;73.61
76108;BME280;64834;52.516;10.528;2022-11-23T14:40:53;99559.13;;;8.82;75.17
76108;BME280;64834;52.516;10.528;2022-11-23T14:43:23;99560.88;;;8.83;75.19
76108;BME280;64834;52.516;10.528;2022-11-23T14:45:50;99555.13;;;8.71;75.77
76108;BME280;64834;52.516;10.528;2022-11-23T14:48:31;99554.25;;;8.51;76.66
76108;BME280;64834;52.516;10.528;2022-11-23T14:51:03;99560.91;;;8.45;76.91